sensor_id;sensor_type;location;lat;lon;timestamp;pressure;altitude;pressure_sealevel;temperature;humidity
3812;BME280;1921;49.368;11.068;2023-05-19T00:01:57;97915.69;;;9.38;56.72
3812;BME280;1921;49.368;11.068;2023-05-19T00:04:26;98032.22;;;10.02;57.75
3812;BME280;1921;49.368;11.068;2023-05-19T00:06:53;98072.09;;;10.18;57.68
3812;BME280;1921;49.368;11.068;2023-05-19T00:09:19;97887.00;;;9.06;57.62
3812;BME280;1921;49.368;11.068;2023-05-19T00:11:45;97779.91;;;8.27;57.16
3812;BME280;1921;49.368;11.068;2023-05-19T00:14:11;98185.56;;;10.79;58.97
3812;BME280;1921;49.368;11.068;2023-05-19T00:16:38;98010.72;;;9.91;58.37
3812;BME280;1921;49.368;11.068;2023-05-19T00:19:05;98090.06;;;10.30;58.19
3812;BME280;1921;49.368;11.068;2023-05-19T00:21:31;97994.75;;;9.78;58.76
3812;BME280;1921;49.368;11.068;2023-05-19T00:23:57;97941.84;;;9.29;58.78
3812;BME280;1921;49.368;11.068;2023-05-19T00:26:24;97951.13;;;9.39;59.00
3812;BME280;1921;49.368;11.068;2023-05-19T00:28:52;97654.13;;;7.71;59.21
3812;BME280;1921;49.368;11.068;2023-05-19T00:31:18;97958.13;;;9.55;59.07
3812;BME280;1921;49.368;11.068;2023-05-19T00:33:44;97840.00;;;8.99;59.10
3812;BME280;1921;49.368;11.068;2023-05-19T00:36:10;98046.72;;;10.29;58.88
3812;BME280;1921;49.368;11.068;2023-05-19T00:38:36;97928.69;;;9.55;58.58
3812;BME280;1921;49.368;11.068;2023-05-19T00:41:04;97967.88;;;10.10;57.67
3812;BME280;1921;49.368;11.068;2023-05-19T00:43:30;97954.38;;;10.23;57.80
3812;BME280;1921;49.368;11.068;2023-05-19T00:45:58;97954.69;;;10.28;57.38
3812;BME280;1921;49.368;11.068;2023-05-19T00:48:25;98092.88;;;11.08;57.04
3812;BME280;1921;49.368;11.068;2023-05-19T00:50:55;98053.69;;;11.16;57.22
3812;BME280;1921;49.368;11.068;2023-05-19T00:53:22;97919.81;;;10.21;56.82
3812;BME280;1921;49.368;11.068;2023-05-19T00:55:48;97913.59;;;10.38;57.19
3812;BME280;1921;49.368;11.068;2023-05-19T00:58:16;98168.72;;;12.01;57.24
3812;BME280;1921;49.368;11.068;2023-05-19T01:00:42;98293.47;;;13.01;57.59
3812;BME280;1921;49.368;11.068;2023-05-19T01:03:09;98024.38;;;11.06;57.08
3812;BME280;1921;49.368;11.068;2023-05-19T01:05:41;97966.25;;;10.81;57.46
3812;BME280;1921;49.368;11.068;2023-05-19T01:08:09;98012.81;;;11.31;57.57
3812;BME280;1921;49.368;11.068;2023-05-19T01:10:35;98065.06;;;11.23;57.31
3812;BME280;1921;49.368;11.068;2023-05-19T01:13:02;97939.47;;;10.48;57.83
3812;BME280;1921;49.368;11.068;2023-05-19T01:15:29;98215.41;;;12.04;57.85
3812;BME280;1921;49.368;11.068;2023-05-19T01:18:04;98015.03;;;11.12;58.06
3812;BME280;1921;49.368;11.068;2023-05-19T01:20:43;98277.56;;;12.79;58.07
3812;BME280;1921;49.368;11.068;2023-05-19T01:30:05;98029.50;;;11.22;57.96
3812;BME280;1921;49.368;11.068;2023-05-19T01:32:33;97884.47;;;10.27;57.64
3812;BME280;1921;49.368;11.068;2023-05-19T01:34:59;98197.75;;;12.37;57.80
3812;BME280;1921;49.368;11.068;2023-05-19T01:37:26;97863.28;;;10.30;57.83
3812;BME280;1921;49.368;11.068;2023-05-19T01:39:53;98048.63;;;11.15;57.76
3812;BME280;1921;49.368;11.068;2023-05-19T01:42:21;97853.91;;;10.04;57.89
3812;BME280;1921;49.368;11.068;2023-05-19T01:44:48;97916.25;;;10.14;57.82
3812;BME280;1921;49.368;11.068;2023-05-19T01:47:14;97937.56;;;10.34;58.17
3812;BME280;1921;49.368;11.068;2023-05-19T01:49:40;98045.66;;;11.18;58.72
3812;BME280;1921;49.368;11.068;2023-05-19T01:52:06;97978.72;;;10.63;58.36
3812;BME280;1921;49.368;11.068;2023-05-19T01:54:31;97944.91;;;10.38;58.36
3812;BME280;1921;49.368;11.068;2023-05-19T01:57:13;98265.13;;;12.58;58.67
3812;BME280;1921;49.368;11.068;2023-05-19T02:00:02;98270.34;;;12.58;58.87
3812;BME280;1921;49.368;11.068;2023-05-19T02:05:54;98158.06;;;11.72;59.30
3812;BME280;1921;49.368;11.068;2023-05-19T02:11:21;97946.75;;;10.61;60.27
3812;BME280;1921;49.368;11.068;2023-05-19T02:13:55;97936.75;;;10.33;60.40
3812;BME280;1921;49.368;11.068;2023-05-19T02:16:25;98046.75;;;11.00;60.48
3812;BME280;1921;49.368;11.068;2023-05-19T02:18:52;98257.97;;;12.52;60.43
3812;BME280;1921;49.368;11.068;2023-05-19T02:21:18;97764.06;;;9.12;60.32
3812;BME280;1921;49.368;11.068;2023-05-19T02:23:44;97864.00;;;10.07;59.91
3812;BME280;1921;49.368;11.068;2023-05-19T02:26:10;98119.25;;;11.60;60.08
3812;BME280;1921;49.368;11.068;2023-05-19T02:28:36;97743.94;;;8.89;60.71
3812;BME280;1921;49.368;11.068;2023-05-19T02:31:02;97828.78;;;9.48;60.85
3812;BME280;1921;49.368;11.068;2023-05-19T02:33:29;97939.22;;;10.10;61.00
3812;BME280;1921;49.368;11.068;2023-05-19T02:35:56;97889.94;;;9.76;61.05
3812;BME280;1921;49.368;11.068;2023-05-19T02:38:22;97898.06;;;9.73;61.45
3812;BME280;1921;49.368;11.068;2023-05-19T02:40:50;97963.31;;;10.04;61.29
3812;BME280;1921;49.368;11.068;2023-05-19T02:43:17;97982.53;;;10.11;61.71
3812;BME280;1921;49.368;11.068;2023-05-19T02:45:42;97837.09;;;9.35;61.98
3812;BME280;1921;49.368;11.068;2023-05-19T02:48:08;97815.63;;;9.08;61.51
3812;BME280;1921;49.368;11.068;2023-05-19T02:50:34;97939.59;;;9.83;62.17
3812;BME280;1921;49.368;11.068;2023-05-19T02:52:59;97767.03;;;9.09;61.93
3812;BME280;1921;49.368;11.068;2023-05-19T02:55:27;98134.50;;;11.41;62.55
3812;BME280;1921;49.368;11.068;2023-05-19T02:57:52;97750.94;;;9.13;62.33
3812;BME280;1921;49.368;11.068;2023-05-19T03:00:18;98127.56;;;11.17;62.41
3812;BME280;1921;49.368;11.068;2023-05-19T03:02:44;97869.78;;;9.70;62.10
3812;BME280;1921;49.368;11.068;2023-05-19T03:05:10;97722.00;;;8.92;62.31
3812;BME280;1921;49.368;11.068;2023-05-19T03:07:36;98113.84;;;11.31;62.38
3812;BME280;1921;49.368;11.068;2023-05-19T03:10:02;97794.28;;;9.37;62.36
3812;BME280;1921;49.368;11.068;2023-05-19T03:12:28;97709.63;;;8.37;62.20
3812;BME280;1921;49.368;11.068;2023-05-19T03:14:54;98056.75;;;10.72;62.47
3812;BME280;1921;49.368;11.068;2023-05-19T03:17:20;98032.56;;;10.39;62.87
3812;BME280;1921;49.368;11.068;2023-05-19T03:19:45;97786.34;;;8.82;61.98
3812;BME280;1921;49.368;11.068;2023-05-19T03:22:11;97969.53;;;9.79;62.40
3812;BME280;1921;49.368;11.068;2023-05-19T03:24:37;98035.47;;;10.20;63.27
3812;BME280;1921;49.368;11.068;2023-05-19T03:27:03;97945.63;;;9.75;63.18
3812;BME280;1921;49.368;11.068;2023-05-19T03:29:32;97855.16;;;9.36;63.85
3812;BME280;1921;49.368;11.068;2023-05-19T03:31:58;98009.41;;;10.20;64.20
3812;BME280;1921;49.368;11.068;2023-05-19T03:34:24;98068.69;;;10.18;64.64
3812;BME280;1921;49.368;11.068;2023-05-19T03:36:50;97813.16;;;8.66;64.69
3812;BME280;1921;49.368;11.068;2023-05-19T03:39:15;98150.50;;;10.82;65.05
3812;BME280;1921;49.368;11.068;2023-05-19T03:41:41;98042.31;;;10.21;65.25
3812;BME280;1921;49.368;11.068;2023-05-19T03:44:07;98019.03;;;10.19;64.77
3812;BME280;1921;49.368;11.068;2023-05-19T03:46:33;97905.72;;;9.17;64.76
3812;BME280;1921;49.368;11.068;2023-05-19T03:48:58;98169.88;;;11.12;64.89
3812;BME280;1921;49.368;11.068;2023-05-19T03:51:24;97890.94;;;9.34;64.52
3812;BME280;1921;49.368;11.068;2023-05-19T03:53:50;97679.13;;;7.89;64.95
3812;BME280;1921;49.368;11.068;2023-05-19T03:56:17;97865.06;;;9.25;65.34
3812;BME280;1921;49.368;11.068;2023-05-19T03:58:42;97983.03;;;9.58;64.74
3812;BME280;1921;49.368;11.068;2023-05-19T04:01:10;97982.22;;;9.90;64.97
3812;BME280;1921;49.368;11.068;2023-05-19T04:03:35;97838.22;;;9.00;65.18
3812;BME280;1921;49.368;11.068;2023-05-19T04:06:01;98007.63;;;10.20;65.63
3812;BME280;1921;49.368;11.068;2023-05-19T04:08:27;97886.22;;;9.30;65.30
3812;BME280;1921;49.368;11.068;2023-05-19T04:10:53;98025.38;;;10.33;65.57
3812;BME280;1921;49.368;11.068;2023-05-19T04:13:20;97846.34;;;8.88;65.47
3812;BME280;1921;49.368;11.068;2023-05-19T04:15:45;98263.22;;;11.82;66.07
3812;BME280;1921;49.368;11.068;2023-05-19T04:18:12;97944.78;;;10.07;64.88
3812;BME280;1921;49.368;11.068;2023-05-19T04:20:38;97669.31;;;8.25;64.57
3812;BME280;1921;49.368;11.068;2023-05-19T04:23:04;97967.38;;;10.15;64.72
3812;BME280;1921;49.368;11.068;2023-05-19T04:25:30;97955.84;;;10.01;64.57
3812;BME280;1921;49.368;11.068;2023-05-19T04:27:55;98157.72;;;11.36;64.38
3812;BME280;1921;49.368;11.068;2023-05-19T04:30:23;98231.28;;;12.03;64.03
3812;BME280;1921;49.368;11.068;2023-05-19T04:32:49;98016.41;;;10.99;64.09
3812;BME280;1921;49.368;11.068;2023-05-19T04:35:15;97807.94;;;9.56;63.15
3812;BME280;1921;49.368;11.068;2023-05-19T04:37:43;98066.19;;;11.29;62.67
3812;BME280;1921;49.368;11.068;2023-05-19T04:40:11;97918.84;;;10.30;62.00
3812;BME280;1921;49.368;11.068;2023-05-19T04:42:37;97934.78;;;10.43;61.76
3812;BME280;1921;49.368;11.068;2023-05-19T04:45:08;97871.63;;;10.09;62.52
3812;BME280;1921;49.368;11.068;2023-05-19T04:47:34;98280.84;;;12.81;62.65
3812;BME280;1921;49.368;11.068;2023-05-19T04:50:06;97968.00;;;10.89;63.56
3812;BME280;1921;49.368;11.068;2023-05-19T04:52:32;98055.84;;;11.44;63.33
3812;BME280;1921;49.368;11.068;2023-05-19T04:54:58;98075.75;;;11.76;62.63
3812;BME280;1921;49.368;11.068;2023-05-19T04:57:24;97936.75;;;11.57;61.98
3812;BME280;1921;49.368;11.068;2023-05-19T04:59:50;97792.03;;;11.14;58.43
3812;BME280;1921;49.368;11.068;2023-05-19T05:02:16;98142.63;;;13.95;57.48
3812;BME280;1921;49.368;11.068;2023-05-19T05:04:42;97978.63;;;13.13;54.51
3812;BME280;1921;49.368;11.068;2023-05-19T05:07:09;98256.47;;;15.50;51.50
3812;BME280;1921;49.368;11.068;2023-05-19T05:09:35;98002.53;;;14.04;50.61
3812;BME280;1921;49.368;11.068;2023-05-19T05:12:01;98004.44;;;13.31;51.82
3812;BME280;1921;49.368;11.068;2023-05-19T05:14:27;98065.03;;;13.13;54.09
3812;BME280;1921;49.368;11.068;2023-05-19T05:16:54;97923.47;;;12.05;54.07
3812;BME280;1921;49.368;11.068;2023-05-19T05:19:20;98213.84;;;13.10;57.24
3812;BME280;1921;49.368;11.068;2023-05-19T05:21:47;98032.41;;;11.58;56.85
3812;BME280;1921;49.368;11.068;2023-05-19T05:24:13;97931.25;;;10.67;59.61
3812;BME280;1921;49.368;11.068;2023-05-19T05:26:39;97799.16;;;9.49;60.49
3812;BME280;1921;49.368;11.068;2023-05-19T05:29:07;97935.88;;;10.88;59.55
3812;BME280;1921;49.368;11.068;2023-05-19T05:31:33;97957.56;;;11.66;58.39
3812;BME280;1921;49.368;11.068;2023-05-19T05:33:59;98037.50;;;12.06;58.25
3812;BME280;1921;49.368;11.068;2023-05-19T05:36:25;98145.56;;;12.97;57.87
3812;BME280;1921;49.368;11.068;2023-05-19T05:38:51;97786.28;;;10.96;56.29
3812;BME280;1921;49.368;11.068;2023-05-19T05:41:16;97955.47;;;11.61;56.90
3812;BME280;1921;49.368;11.068;2023-05-19T05:43:42;97688.13;;;9.72;58.03
3812;BME280;1921;49.368;11.068;2023-05-19T05:46:08;98015.19;;;11.41;59.30
3812;BME280;1921;49.368;11.068;2023-05-19T05:48:34;97780.84;;;9.89;58.24
3812;BME280;1921;49.368;11.068;2023-05-19T05:51:00;97839.22;;;10.11;60.52
3812;BME280;1921;49.368;11.068;2023-05-19T05:53:29;97652.28;;;8.63;60.26
3812;BME280;1921;49.368;11.068;2023-05-19T05:55:57;97965.41;;;10.81;61.67
3812;BME280;1921;49.368;11.068;2023-05-19T05:58:22;98104.53;;;11.28;62.65
3812;BME280;1921;49.368;11.068;2023-05-19T06:00:48;97880.19;;;9.37;62.77
3812;BME280;1921;49.368;11.068;2023-05-19T06:03:15;98218.38;;;12.32;62.30
3812;BME280;1921;49.368;11.068;2023-05-19T06:05:41;97828.44;;;9.59;61.77
3812;BME280;1921;49.368;11.068;2023-05-19T06:08:07;97974.69;;;10.36;63.44
3812;BME280;1921;49.368;11.068;2023-05-19T06:10:33;97870.88;;;9.84;63.13
3812;BME280;1921;49.368;11.068;2023-05-19T06:12:59;97871.28;;;10.12;61.79
3812;BME280;1921;49.368;11.068;2023-05-19T06:15:25;98216.53;;;11.71;63.83
3812;BME280;1921;49.368;11.068;2023-05-19T06:17:51;98303.06;;;12.54;64.01
3812;BME280;1921;49.368;11.068;2023-05-19T06:20:17;97874.38;;;10.23;62.30
3812;BME280;1921;49.368;11.068;2023-05-19T06:22:43;97990.09;;;10.62;63.04
3812;BME280;1921;49.368;11.068;2023-05-19T06:25:09;97740.31;;;9.23;63.07
3812;BME280;1921;49.368;11.068;2023-05-19T06:27:35;97967.50;;;10.46;63.05
3812;BME280;1921;49.368;11.068;2023-05-19T06:30:01;98181.28;;;12.06;63.87
3812;BME280;1921;49.368;11.068;2023-05-19T06:32:26;98103.81;;;11.03;64.15
3812;BME280;1921;49.368;11.068;2023-05-19T06:34:54;98084.44;;;10.90;64.98
3812;BME280;1921;49.368;11.068;2023-05-19T06:37:21;98077.97;;;11.25;63.39
3812;BME280;1921;49.368;11.068;2023-05-19T06:39:52;98181.56;;;11.72;63.18
3812;BME280;1921;49.368;11.068;2023-05-19T06:42:19;98263.50;;;12.57;62.55
3812;BME280;1921;49.368;11.068;2023-05-19T06:44:51;98115.50;;;11.94;61.93
3812;BME280;1921;49.368;11.068;2023-05-19T06:47:17;98240.81;;;12.73;61.19
3812;BME280;1921;49.368;11.068;2023-05-19T06:49:45;98207.97;;;12.24;62.46
3812;BME280;1921;49.368;11.068;2023-05-19T06:52:15;97975.63;;;10.98;62.61
3812;BME280;1921;49.368;11.068;2023-05-19T06:54:41;98145.38;;;12.23;62.22
3812;BME280;1921;49.368;11.068;2023-05-19T06:57:07;98118.06;;;12.02;62.04
3812;BME280;1921;49.368;11.068;2023-05-19T06:59:32;97927.50;;;11.24;61.58
3812;BME280;1921;49.368;11.068;2023-05-19T07:01:58;97962.56;;;10.98;60.89
3812;BME280;1921;49.368;11.068;2023-05-19T07:04:24;97827.53;;;9.99;62.91
3812;BME280;1921;49.368;11.068;2023-05-19T07:06:50;97768.88;;;9.56;61.71
3812;BME280;1921;49.368;11.068;2023-05-19T07:09:16;97907.56;;;10.77;60.64
3812;BME280;1921;49.368;11.068;2023-05-19T07:11:41;97977.63;;;10.88;61.84
3812;BME280;1921;49.368;11.068;2023-05-19T07:14:07;97905.78;;;10.38;62.56
3812;BME280;1921;49.368;11.068;2023-05-19T07:16:33;97627.78;;;8.49;61.61
3812;BME280;1921;49.368;11.068;2023-05-19T07:18:59;98176.16;;;12.81;61.26
3812;BME280;1921;49.368;11.068;2023-05-19T07:21:25;98118.66;;;13.03;57.86
3812;BME280;1921;49.368;11.068;2023-05-19T07:23:51;98041.81;;;12.51;57.55
3812;BME280;1921;49.368;11.068;2023-05-19T07:26:17;97817.44;;;10.97;57.12
3812;BME280;1921;49.368;11.068;2023-05-19T07:28:43;97909.38;;;11.91;57.37
3812;BME280;1921;49.368;11.068;2023-05-19T07:31:09;97846.66;;;11.53;56.75
3812;BME280;1921;49.368;11.068;2023-05-19T07:33:34;97994.44;;;12.90;57.07
3812;BME280;1921;49.368;11.068;2023-05-19T07:36:00;97862.84;;;13.61;52.21
3812;BME280;1921;49.368;11.068;2023-05-19T07:38:26;97858.31;;;15.13;48.21
3812;BME280;1921;49.368;11.068;2023-05-19T07:40:53;97845.22;;;15.73;45.50
3812;BME280;1921;49.368;11.068;2023-05-19T07:43:18;97876.50;;;16.27;44.45
3812;BME280;1921;49.368;11.068;2023-05-19T07:45:44;97864.75;;;16.81;42.91
3812;BME280;1921;49.368;11.068;2023-05-19T07:48:10;97711.97;;;13.45;47.28
3812;BME280;1921;49.368;11.068;2023-05-19T07:50:36;97754.31;;;12.56;50.57
3812;BME280;1921;49.368;11.068;2023-05-19T07:53:01;98049.03;;;15.55;49.90
3812;BME280;1921;49.368;11.068;2023-05-19T07:55:27;97913.78;;;15.71;47.53
3812;BME280;1921;49.368;11.068;2023-05-19T07:57:53;97847.88;;;14.65;48.35
3812;BME280;1921;49.368;11.068;2023-05-19T08:00:19;97894.03;;;13.84;50.38
3812;BME280;1921;49.368;11.068;2023-05-19T08:02:44;98028.81;;;14.11;52.58
3812;BME280;1921;49.368;11.068;2023-05-19T08:05:10;97642.63;;;11.78;53.01
3812;BME280;1921;49.368;11.068;2023-05-19T08:07:36;97694.28;;;11.76;53.40
3812;BME280;1921;49.368;11.068;2023-05-19T08:10:02;97885.06;;;12.50;55.47
3812;BME280;1921;49.368;11.068;2023-05-19T08:12:28;97972.09;;;13.60;54.82
3812;BME280;1921;49.368;11.068;2023-05-19T08:14:54;97841.13;;;13.45;52.82
3812;BME280;1921;49.368;11.068;2023-05-19T08:17:20;98068.97;;;14.61;52.97
3812;BME280;1921;49.368;11.068;2023-05-19T08:19:46;97876.09;;;13.59;52.94
3812;BME280;1921;49.368;11.068;2023-05-19T08:22:12;97833.44;;;12.58;52.79
3812;BME280;1921;49.368;11.068;2023-05-19T08:24:37;97859.28;;;11.88;56.68
3812;BME280;1921;49.368;11.068;2023-05-19T08:27:04;97999.50;;;13.07;56.20
3812;BME280;1921;49.368;11.068;2023-05-19T08:29:30;97657.44;;;11.12;55.04
3812;BME280;1921;49.368;11.068;2023-05-19T08:31:56;97985.25;;;13.67;54.03
3812;BME280;1921;49.368;11.068;2023-05-19T08:34:22;98091.53;;;14.34;53.88
3812;BME280;1921;49.368;11.068;2023-05-19T08:36:48;98073.44;;;14.60;53.89
3812;BME280;1921;49.368;11.068;2023-05-19T08:39:14;97943.09;;;14.18;51.45
3812;BME280;1921;49.368;11.068;2023-05-19T08:41:42;97913.00;;;13.58;52.43
3812;BME280;1921;49.368;11.068;2023-05-19T08:44:07;97826.09;;;12.90;52.06
3812;BME280;1921;49.368;11.068;2023-05-19T08:46:34;97845.25;;;13.83;50.50
3812;BME280;1921;49.368;11.068;2023-05-19T08:49:06;97802.16;;;13.92;50.02
3812;BME280;1921;49.368;11.068;2023-05-19T08:55:08;97710.63;;;13.00;51.10
3812;BME280;1921;49.368;11.068;2023-05-19T08:57:37;97643.06;;;13.51;48.26
3812;BME280;1921;49.368;11.068;2023-05-19T09:00:05;97833.28;;;14.08;49.71
3812;BME280;1921;49.368;11.068;2023-05-19T09:02:37;97784.16;;;13.89;49.12
3812;BME280;1921;49.368;11.068;2023-05-19T09:05:04;97952.22;;;15.92;47.41
3812;BME280;1921;49.368;11.068;2023-05-19T09:07:31;97824.25;;;14.65;47.33
3812;BME280;1921;49.368;11.068;2023-05-19T09:10:00;98003.59;;;16.48;46.71
3812;BME280;1921;49.368;11.068;2023-05-19T09:12:26;97962.03;;;16.63;44.68
3812;BME280;1921;49.368;11.068;2023-05-19T09:14:52;98009.41;;;15.57;47.91
3812;BME280;1921;49.368;11.068;2023-05-19T09:17:18;97722.22;;;14.36;47.21
3812;BME280;1921;49.368;11.068;2023-05-19T09:19:44;97877.75;;;15.39;47.89
3812;BME280;1921;49.368;11.068;2023-05-19T09:22:15;97785.00;;;13.96;49.21
3812;BME280;1921;49.368;11.068;2023-05-19T09:24:41;97705.25;;;13.08;50.67
3812;BME280;1921;49.368;11.068;2023-05-19T09:27:07;97920.75;;;13.44;51.83
3812;BME280;1921;49.368;11.068;2023-05-19T09:29:32;97817.91;;;12.93;53.41
3812;BME280;1921;49.368;11.068;2023-05-19T09:31:58;97859.78;;;13.57;52.90
3812;BME280;1921;49.368;11.068;2023-05-19T09:34:29;97769.47;;;13.60;50.31
3812;BME280;1921;49.368;11.068;2023-05-19T09:36:55;97812.91;;;14.51;48.92
3812;BME280;1921;49.368;11.068;2023-05-19T09:39:23;97942.09;;;15.82;47.26
3812;BME280;1921;49.368;11.068;2023-05-19T09:41:54;97711.22;;;12.52;50.63
3812;BME280;1921;49.368;11.068;2023-05-19T09:44:22;97615.31;;;11.44;53.07
3812;BME280;1921;49.368;11.068;2023-05-19T09:46:50;97757.22;;;12.25;52.84
3812;BME280;1921;49.368;11.068;2023-05-19T09:49:24;97842.66;;;12.39;54.28
3812;BME280;1921;49.368;11.068;2023-05-19T09:51:59;97903.03;;;13.25;54.02
3812;BME280;1921;49.368;11.068;2023-05-19T09:54:26;97608.59;;;11.05;54.27
3812;BME280;1921;49.368;11.068;2023-05-19T09:57:03;97935.25;;;13.26;55.10
3812;BME280;1921;49.368;11.068;2023-05-19T09:59:31;97976.44;;;13.74;54.08
3812;BME280;1921;49.368;11.068;2023-05-19T10:01:58;97842.84;;;13.88;51.80
3812;BME280;1921;49.368;11.068;2023-05-19T10:04:26;98093.25;;;14.97;53.12
3812;BME280;1921;49.368;11.068;2023-05-19T10:06:54;97828.19;;;13.65;51.52
3812;BME280;1921;49.368;11.068;2023-05-19T10:09:25;98061.53;;;16.21;49.79
3812;BME280;1921;49.368;11.068;2023-05-19T10:11:52;97940.41;;;16.54;46.96
3812;BME280;1921;49.368;11.068;2023-05-19T10:14:25;97865.41;;;16.70;44.74
3812;BME280;1921;49.368;11.068;2023-05-19T10:16:52;97811.31;;;16.74;44.20
3812;BME280;1921;49.368;11.068;2023-05-19T10:19:24;97845.97;;;17.09;44.25
3812;BME280;1921;49.368;11.068;2023-05-19T10:21:51;97842.50;;;17.65;42.82
3812;BME280;1921;49.368;11.068;2023-05-19T10:24:18;97740.56;;;16.39;44.54
3812;BME280;1921;49.368;11.068;2023-05-19T10:26:50;97874.63;;;17.81;43.04
3812;BME280;1921;49.368;11.068;2023-05-19T10:29:24;97849.25;;;17.30;43.57
3812;BME280;1921;49.368;11.068;2023-05-19T10:31:52;97924.81;;;17.42;45.21
3812;BME280;1921;49.368;11.068;2023-05-19T10:40:14;97756.59;;;17.69;42.20
3812;BME280;1921;49.368;11.068;2023-05-19T10:43:38;98111.56;;;19.65;42.85
3812;BME280;1921;49.368;11.068;2023-05-19T10:45:52;97815.31;;;19.17;40.03
3812;BME280;1921;49.368;11.068;2023-05-19T10:48:20;97786.63;;;20.31;37.88
3812;BME280;1921;49.368;11.068;2023-05-19T10:50:48;97711.19;;;19.65;37.32
3812;BME280;1921;49.368;11.068;2023-05-19T10:53:18;97627.88;;;20.24;35.55
3812;BME280;1921;49.368;11.068;2023-05-19T10:55:52;98005.25;;;22.56;35.16
3812;BME280;1921;49.368;11.068;2023-05-19T10:58:48;97881.88;;;21.46;35.91
3812;BME280;1921;49.368;11.068;2023-05-19T11:01:16;97807.72;;;20.78;35.52
3812;BME280;1921;49.368;11.068;2023-05-19T11:03:49;97954.41;;;20.95;37.27
3812;BME280;1921;49.368;11.068;2023-05-19T11:06:26;97677.16;;;18.14;39.96
3812;BME280;1921;49.368;11.068;2023-05-19T11:11:23;97825.09;;;16.63;44.91
3812;BME280;1921;49.368;11.068;2023-05-19T11:13:51;97860.03;;;16.97;44.27
3812;BME280;1921;49.368;11.068;2023-05-19T11:16:31;97897.38;;;15.89;47.64
3812;BME280;1921;49.368;11.068;2023-05-19T11:19:00;97794.03;;;15.09;47.75
3812;BME280;1921;49.368;11.068;2023-05-19T11:21:46;98106.03;;;17.15;48.12
3812;BME280;1921;49.368;11.068;2023-05-19T11:24:37;98020.16;;;16.88;45.68
3812;BME280;1921;49.368;11.068;2023-05-19T11:27:30;98097.72;;;17.77;47.52
3812;BME280;1921;49.368;11.068;2023-05-19T11:32:32;97804.88;;;17.52;42.63
3812;BME280;1921;49.368;11.068;2023-05-19T11:34:59;97832.34;;;18.79;41.51
3812;BME280;1921;49.368;11.068;2023-05-19T11:37:26;97907.16;;;17.99;42.59
3812;BME280;1921;49.368;11.068;2023-05-19T11:39:53;97772.84;;;17.91;42.21
3812;BME280;1921;49.368;11.068;2023-05-19T11:42:19;97846.34;;;16.68;45.23
3812;BME280;1921;49.368;11.068;2023-05-19T11:44:45;97805.09;;;17.25;43.88
3812;BME280;1921;49.368;11.068;2023-05-19T11:47:15;97949.94;;;18.88;42.64
3812;BME280;1921;49.368;11.068;2023-05-19T11:49:47;97828.91;;;19.20;40.13
3812;BME280;1921;49.368;11.068;2023-05-19T11:52:13;97764.91;;;19.65;38.00
3812;BME280;1921;49.368;11.068;2023-05-19T11:54:39;97811.91;;;20.22;38.12
3812;BME280;1921;49.368;11.068;2023-05-19T11:57:08;97811.88;;;20.74;36.76
3812;BME280;1921;49.368;11.068;2023-05-19T11:59:38;97878.91;;;19.22;41.17
3812;BME280;1921;49.368;11.068;2023-05-19T12:02:23;97922.69;;;19.48;42.19
3812;BME280;1921;49.368;11.068;2023-05-19T12:04:52;98035.06;;;20.29;41.96
3812;BME280;1921;49.368;11.068;2023-05-19T12:07:23;97958.50;;;20.27;40.98
3812;BME280;1921;49.368;11.068;2023-05-19T12:09:50;97832.31;;;20.61;38.85
3812;BME280;1921;49.368;11.068;2023-05-19T12:12:20;97996.41;;;22.73;36.89
3812;BME280;1921;49.368;11.068;2023-05-19T12:14:49;98014.09;;;23.01;36.67
3812;BME280;1921;49.368;11.068;2023-05-19T12:17:18;97989.53;;;21.88;37.13
3812;BME280;1921;49.368;11.068;2023-05-19T12:19:46;98030.38;;;22.15;37.42
3812;BME280;1921;49.368;11.068;2023-05-19T12:22:14;97979.28;;;21.80;38.09
3812;BME280;1921;49.368;11.068;2023-05-19T12:24:42;97960.72;;;21.34;37.56
3812;BME280;1921;49.368;11.068;2023-05-19T12:27:22;98016.34;;;22.53;37.15
3812;BME280;1921;49.368;11.068;2023-05-19T12:29:53;97998.22;;;21.26;38.24
3812;BME280;1921;49.368;11.068;2023-05-19T12:32:24;98031.31;;;20.48;40.62
3812;BME280;1921;49.368;11.068;2023-05-19T12:34:51;97988.56;;;18.71;44.45
3812;BME280;1921;49.368;11.068;2023-05-19T12:37:17;98021.00;;;19.15;43.74
3812;BME280;1921;49.368;11.068;2023-05-19T12:43:35;97542.44;;;16.76;42.14
3812;BME280;1921;49.368;11.068;2023-05-19T12:46:10;97869.59;;;20.20;40.90
3812;BME280;1921;49.368;11.068;2023-05-19T12:48:42;97844.53;;;22.47;35.51
3812;BME280;1921;49.368;11.068;2023-05-19T12:51:19;97882.72;;;24.35;33.28
3812;BME280;1921;49.368;11.068;2023-05-19T12:53:45;97943.81;;;22.97;34.52
3812;BME280;1921;49.368;11.068;2023-05-19T12:56:13;97988.88;;;22.48;36.01
3812;BME280;1921;49.368;11.068;2023-05-19T12:58:43;98011.56;;;21.03;37.89
3812;BME280;1921;49.368;11.068;2023-05-19T13:01:17;97996.06;;;21.11;38.31
3812;BME280;1921;49.368;11.068;2023-05-19T13:03:54;97913.00;;;20.54;39.00
3812;BME280;1921;49.368;11.068;2023-05-19T13:06:21;97878.59;;;21.28;37.18
3812;BME280;1921;49.368;11.068;2023-05-19T13:09:26;97990.75;;;21.80;38.27
3812;BME280;1921;49.368;11.068;2023-05-19T13:12:20;97864.00;;;21.59;37.47
3812;BME280;1921;49.368;11.068;2023-05-19T13:14:45;97596.69;;;19.17;37.90
3812;BME280;1921;49.368;11.068;2023-05-19T13:17:11;97934.50;;;20.81;39.17
3812;BME280;1921;49.368;11.068;2023-05-19T13:20:29;97998.97;;;21.50;38.00
3812;BME280;1921;49.368;11.068;2023-05-19T13:24:15;97651.19;;;21.40;33.58
3812;BME280;1921;49.368;11.068;2023-05-19T13:26:41;97934.69;;;23.15;35.49
3812;BME280;1921;49.368;11.068;2023-05-19T13:29:08;97972.00;;;21.87;37.86
3812;BME280;1921;49.368;11.068;2023-05-19T13:31:37;97912.56;;;22.65;35.97
3812;BME280;1921;49.368;11.068;2023-05-19T13:34:03;97861.25;;;23.46;34.54
3812;BME280;1921;49.368;11.068;2023-05-19T13:36:28;97935.22;;;24.92;32.53
3812;BME280;1921;49.368;11.068;2023-05-19T13:38:54;97896.50;;;21.83;37.76
3812;BME280;1921;49.368;11.068;2023-05-19T13:41:23;97952.50;;;20.55;40.45
3812;BME280;1921;49.368;11.068;2023-05-19T13:43:53;97934.28;;;20.70;38.14
3812;BME280;1921;49.368;11.068;2023-05-19T13:46:38;97936.00;;;20.41;40.09
3812;BME280;1921;49.368;11.068;2023-05-19T13:49:04;97912.41;;;19.93;39.61
3812;BME280;1921;49.368;11.068;2023-05-19T13:51:30;97707.16;;;17.46;42.08